Clermont, Kentucky
Current Conditions -  °F | °C
As of 7:03 AM on Thursday 27 Nov 2014 (Local Time) from KFTK Reporting Station
Overcast Overcast  
Wind Chill: 23°   Ceiling: 1100
Heat Index: 30°   Visibility: 10mi
Dew Point: 27°   Wind: 8mph
Humidity: 86%   Direction: 280°W
Pressure: 30.23"   Gusts: NA
Location:  37.93°N, 85.65°W
Report Text: KFTK 271203Z AUTO 28007KT 10SM BKN011 OVC055 M01/M03 A3023 RMK AO2 CIG 011V055 BKN V SCT
Loading
Personal Weather Stations






























Interactive Weather Map New forecast layout! Learn more

10-Day Weather Forecast

Advertisements
Track Severe Weather on mobile